createdAt,value
2019-06-10T00:01:51.254Z,21.27
2019-06-10T00:04:23.119Z,21.23
2019-06-10T00:06:55.775Z,21.28
2019-06-10T00:09:31.178Z,21.16
2019-06-10T00:12:04.755Z,21.31
2019-06-10T00:14:38.252Z,21.16
2019-06-10T00:17:11.081Z,21.13
2019-06-10T00:19:43.459Z,21.10
2019-06-10T00:22:15.754Z,21.09
2019-06-10T00:24:48.063Z,21.09
2019-06-10T00:27:21.566Z,21.03
2019-06-10T00:29:55.060Z,20.94
2019-06-10T00:32:27.390Z,20.93
2019-06-10T00:35:01.968Z,20.93
2019-06-10T00:37:33.619Z,20.90
2019-06-10T00:40:09.995Z,21.03
2019-06-10T00:42:41.764Z,20.89
2019-06-10T00:45:18.048Z,20.85
2019-06-10T00:47:52.037Z,20.74
2019-06-10T00:50:23.253Z,20.70
2019-06-10T00:52:55.594Z,20.64
2019-06-10T00:55:27.893Z,20.63
2019-06-10T00:58:01.439Z,20.57
2019-06-10T01:00:34.239Z,20.52
2019-06-10T01:03:08.039Z,20.54
2019-06-10T01:05:42.227Z,20.53
2019-06-10T01:08:15.748Z,20.55
2019-06-10T01:10:51.986Z,20.58
2019-06-10T01:13:23.252Z,20.55
2019-06-10T01:15:55.578Z,20.51
2019-06-10T01:18:37.445Z,20.50
2019-06-10T01:21:02.119Z,20.47
2019-06-10T01:23:34.360Z,20.47
2019-06-10T01:26:07.607Z,20.49
2019-06-10T01:28:41.042Z,20.46
2019-06-10T01:31:20.208Z,20.44
2019-06-10T01:33:47.232Z,20.43
2019-06-10T01:36:21.110Z,20.36
2019-06-10T01:38:53.589Z,20.29
2019-06-10T01:41:25.877Z,20.25
2019-06-10T01:43:58.177Z,20.22
2019-06-10T01:46:32.486Z,20.22
2019-06-10T01:49:04.788Z,20.23
2019-06-10T01:51:38.067Z,20.20
2019-06-10T01:54:12.417Z,20.20
2019-06-10T01:56:44.464Z,20.14
2019-06-10T01:59:17.071Z,20.10
2019-06-10T02:01:52.154Z,20.11
2019-06-10T02:04:24.371Z,20.13
2019-06-10T02:06:56.657Z,20.12
2019-06-10T02:09:31.078Z,20.17
2019-06-10T02:12:03.001Z,20.16
2019-06-10T02:14:35.194Z,20.14
2019-06-10T02:17:07.421Z,20.08
2019-06-10T02:19:41.456Z,20.11
2019-06-10T02:22:16.964Z,20.13
2019-06-10T02:24:50.664Z,20.07
2019-06-10T02:27:23.223Z,20.14
2019-06-10T02:29:55.680Z,20.11
2019-06-10T02:32:33.038Z,20.18
2019-06-10T02:35:10.483Z,20.28
2019-06-10T02:37:38.084Z,20.35
2019-06-10T02:40:14.508Z,20.33
2019-06-10T02:42:46.710Z,20.94
2019-06-10T02:45:26.479Z,21.20
2019-06-10T02:47:55.103Z,21.39
2019-06-10T02:50:45.480Z,21.51
2019-06-10T02:53:19.713Z,21.59
2019-06-10T02:55:53.816Z,21.68
2019-06-10T02:58:33.261Z,21.74
2019-06-10T03:01:03.921Z,21.71
2019-06-10T03:03:42.707Z,21.63
2019-06-10T03:06:09.216Z,21.77
2019-06-10T03:08:43.599Z,21.70
2019-06-10T03:11:16.548Z,21.67
2019-06-10T03:13:49.661Z,21.79
2019-06-10T03:16:25.748Z,21.77
2019-06-10T03:18:57.439Z,21.69
2019-06-10T03:21:32.167Z,21.68
2019-06-10T03:24:03.680Z,21.78
2019-06-10T03:26:37.135Z,22.01
2019-06-10T03:29:09.393Z,22.16
2019-06-10T03:31:47.309Z,22.08
2019-06-10T03:34:17.646Z,22.20
2019-06-10T03:36:49.619Z,22.27
2019-06-10T03:39:23.858Z,22.28
2019-06-10T03:41:57.053Z,22.49
2019-06-10T03:44:29.326Z,22.49
2019-06-10T03:47:02.905Z,22.42
2019-06-10T03:49:48.992Z,22.48
2019-06-10T03:52:09.318Z,22.48
2019-06-10T03:54:43.295Z,22.33
2019-06-10T03:57:17.110Z,22.59
2019-06-10T03:59:49.584Z,22.57
2019-06-10T04:02:23.848Z,22.47
2019-06-10T04:04:55.891Z,22.60
2019-06-10T04:07:30.998Z,22.85
2019-06-10T04:10:02.467Z,23.12
2019-06-10T04:12:34.657Z,23.21
2019-06-10T04:15:07.085Z,23.26
2019-06-10T04:17:42.825Z,23.14
2019-06-10T04:20:17.732Z,23.19
2019-06-10T04:22:52.196Z,23.26
2019-06-10T04:25:27.599Z,23.30
2019-06-10T04:27:59.218Z,23.47
2019-06-10T04:30:34.626Z,23.98
2019-06-10T04:33:06.948Z,24.58
2019-06-10T04:35:39.306Z,25.10
2019-06-10T04:38:13.202Z,25.19
2019-06-10T04:40:45.600Z,27.88
2019-06-10T04:43:18.396Z,28.67
2019-06-10T04:45:52.811Z,29.04
2019-06-10T04:48:26.201Z,28.38
2019-06-10T04:50:58.878Z,30.07
2019-06-10T04:53:32.990Z,29.71
2019-06-10T04:56:06.243Z,30.75
2019-06-10T04:58:38.638Z,31.73
2019-06-10T05:01:12.116Z,30.78
2019-06-10T05:03:44.588Z,31.93
2019-06-10T05:06:18.995Z,31.28
2019-06-10T05:08:53.611Z,32.49
2019-06-10T05:11:26.973Z,33.94
2019-06-10T05:13:59.460Z,33.56
2019-06-10T05:16:34.934Z,33.76
2019-06-10T05:19:05.787Z,32.54
2019-06-10T05:21:38.113Z,31.75
2019-06-10T05:24:12.436Z,31.30
2019-06-10T05:26:46.454Z,32.07
2019-06-10T05:29:20.148Z,32.93
2019-06-10T05:31:52.787Z,33.23
2019-06-10T05:34:27.150Z,32.92
2019-06-10T05:36:59.198Z,33.11
2019-06-10T05:39:34.743Z,33.04
2019-06-10T05:42:05.511Z,32.55
2019-06-10T05:44:37.925Z,32.06
2019-06-10T05:47:12.249Z,32.20
2019-06-10T05:49:47.524Z,35.82
2019-06-10T05:52:19.900Z,33.22
2019-06-10T05:54:52.328Z,34.90
2019-06-10T05:57:25.803Z,34.05
2019-06-10T05:59:58.156Z,35.32
2019-06-10T06:02:32.706Z,35.29
2019-06-10T06:05:09.539Z,33.79
2019-06-10T06:07:42.445Z,36.65
2019-06-10T06:10:17.021Z,35.56
2019-06-10T06:12:49.422Z,35.40
2019-06-10T06:15:22.141Z,33.33
2019-06-10T06:18:07.293Z,33.44
2019-06-10T06:20:29.691Z,33.86
2019-06-10T06:23:03.274Z,34.98
2019-06-10T06:25:42.056Z,34.86
2019-06-10T06:28:12.893Z,35.18
2019-06-10T06:30:44.758Z,35.84
2019-06-10T06:33:17.116Z,34.63
2019-06-10T06:35:49.538Z,35.41
2019-06-10T06:38:23.658Z,34.73
2019-06-10T06:40:56.012Z,35.06
2019-06-10T06:43:32.790Z,34.30
2019-06-10T06:46:07.215Z,36.11
2019-06-10T06:48:40.965Z,35.06
2019-06-10T06:51:14.695Z,35.58
2019-06-10T06:53:51.995Z,35.48
2019-06-10T06:56:23.089Z,36.84
2019-06-10T06:58:56.560Z,35.77
2019-06-10T07:01:29.683Z,35.74
2019-06-10T07:04:02.828Z,36.25
2019-06-10T07:06:38.650Z,35.51
2019-06-10T07:09:13.456Z,37.04
2019-06-10T07:11:47.994Z,36.35
2019-06-10T07:14:23.811Z,35.36
2019-06-10T07:16:55.481Z,36.08
2019-06-10T07:19:28.953Z,37.34
2019-06-10T07:22:11.528Z,37.41
2019-06-10T07:24:37.241Z,37.84
2019-06-10T07:27:09.580Z,36.57
2019-06-10T07:29:46.494Z,38.92
2019-06-10T07:32:14.928Z,37.51
2019-06-10T07:34:48.300Z,35.70
2019-06-10T07:37:19.967Z,37.14
2019-06-10T07:39:52.445Z,38.57
2019-06-10T07:42:25.978Z,37.00
2019-06-10T07:45:02.523Z,37.28
2019-06-10T07:47:35.337Z,36.04
2019-06-10T07:50:08.411Z,36.48
2019-06-10T07:52:45.015Z,37.97
2019-06-10T07:55:16.922Z,35.78
2019-06-10T07:57:49.297Z,36.15
2019-06-10T08:00:22.762Z,37.65
2019-06-10T08:02:57.158Z,37.90
2019-06-10T08:05:29.485Z,37.74
2019-06-10T08:08:02.809Z,39.17
2019-06-10T08:10:35.316Z,37.29
2019-06-10T08:13:07.793Z,39.44
2019-06-10T08:15:42.922Z,38.21
2019-06-10T08:18:14.523Z,39.06
2019-06-10T08:20:49.465Z,38.98
2019-06-10T08:23:23.764Z,38.20
2019-06-10T08:25:57.843Z,40.43
2019-06-10T08:28:33.117Z,39.08
2019-06-10T08:31:08.646Z,36.28
2019-06-10T08:33:44.329Z,34.90
2019-06-10T08:36:18.271Z,33.66
2019-06-10T08:38:52.629Z,33.65
2019-06-10T08:41:26.224Z,34.23
2019-06-10T08:43:58.524Z,33.90
2019-06-10T08:46:32.922Z,33.54
2019-06-10T08:49:07.775Z,33.18
2019-06-10T08:51:46.617Z,33.23
2019-06-10T08:54:16.656Z,33.44
2019-06-10T08:56:54.090Z,33.18
2019-06-10T08:59:24.857Z,33.39
2019-06-10T09:02:02.949Z,33.27
2019-06-10T09:04:45.580Z,32.98
2019-06-10T09:07:15.066Z,32.79
2019-06-10T09:09:50.042Z,32.75
2019-06-10T09:12:30.377Z,32.77
2019-06-10T09:14:56.383Z,32.72
2019-06-10T09:17:28.874Z,32.38
2019-06-10T09:20:02.953Z,32.59
2019-06-10T09:22:39.814Z,32.74
2019-06-10T09:25:12.394Z,32.74
2019-06-10T09:27:47.907Z,32.15
2019-06-10T09:30:22.686Z,32.53
2019-06-10T09:32:57.590Z,32.59
2019-06-10T09:35:36.579Z,32.24
2019-06-10T09:38:10.541Z,32.25
2019-06-10T09:41:00.783Z,32.45
2019-06-10T09:43:28.069Z,32.35
2019-06-10T09:46:03.498Z,32.35
2019-06-10T09:48:36.243Z,32.54
2019-06-10T09:51:08.790Z,32.47
2019-06-10T09:53:46.423Z,32.42
2019-06-10T09:56:15.489Z,32.43
2019-06-10T09:58:52.145Z,32.38
2019-06-10T10:01:25.150Z,33.20
2019-06-10T10:04:00.189Z,32.73
2019-06-10T10:06:32.770Z,32.41
2019-06-10T10:09:07.319Z,32.45
2019-06-10T10:11:42.430Z,32.57
2019-06-10T10:14:15.967Z,32.62
2019-06-10T10:16:50.800Z,32.41
2019-06-10T10:19:23.036Z,32.37
2019-06-10T10:21:58.255Z,32.37
2019-06-10T10:24:27.857Z,32.40
2019-06-10T10:27:05.213Z,32.75
2019-06-10T10:29:36.835Z,32.61
2019-06-10T10:32:09.301Z,32.59
2019-06-10T10:34:43.774Z,32.56
2019-06-10T10:37:17.769Z,32.53
2019-06-10T10:39:56.091Z,32.55
2019-06-10T10:42:41.671Z,32.70
2019-06-10T10:45:02.721Z,32.92
2019-06-10T10:47:38.898Z,32.72
2019-06-10T10:50:15.230Z,32.68
2019-06-10T10:52:53.917Z,32.53
2019-06-10T10:55:29.366Z,32.54
2019-06-10T10:58:03.240Z,32.49
2019-06-10T11:00:47.820Z,32.64
2019-06-10T11:03:19.809Z,32.68
2019-06-10T11:06:00.501Z,32.78
2019-06-10T11:08:27.352Z,32.89
2019-06-10T11:11:05.270Z,32.97
2019-06-10T11:13:43.240Z,33.10
2019-06-10T11:16:22.495Z,33.08
2019-06-10T11:18:58.004Z,33.08
2019-06-10T11:21:32.903Z,32.82
2019-06-10T11:24:09.295Z,32.78
2019-06-10T11:26:45.779Z,32.93
2019-06-10T11:29:18.631Z,33.04
2019-06-10T11:31:57.404Z,33.28
2019-06-10T11:34:33.205Z,33.26
2019-06-10T11:37:08.223Z,33.13
2019-06-10T11:39:43.192Z,33.02
2019-06-10T11:42:15.627Z,32.98
2019-06-10T11:44:48.419Z,32.93
2019-06-10T11:47:22.970Z,32.82
2019-06-10T11:49:57.838Z,32.73
2019-06-10T11:52:33.487Z,32.76
2019-06-10T11:55:16.507Z,33.07
2019-06-10T11:57:43.408Z,33.26
2019-06-10T12:00:17.656Z,33.57
2019-06-10T12:02:53.127Z,33.43
2019-06-10T12:05:23.921Z,33.46
2019-06-10T12:07:59.530Z,33.53
2019-06-10T12:10:29.319Z,33.69
2019-06-10T12:13:07.228Z,33.81
2019-06-10T12:16:13.864Z,33.76
2019-06-10T12:18:14.173Z,33.75
2019-06-10T12:20:46.533Z,33.71
2019-06-10T12:23:22.194Z,33.33
2019-06-10T12:25:56.701Z,33.24
2019-06-10T12:28:28.839Z,33.47
2019-06-10T12:31:07.308Z,33.78
2019-06-10T12:33:40.402Z,33.92
2019-06-10T12:36:13.070Z,33.99
2019-06-10T12:38:45.595Z,33.75
2019-06-10T12:41:18.871Z,33.71
2019-06-10T12:43:54.474Z,33.54
2019-06-10T12:46:27.336Z,33.71
2019-06-10T12:49:03.698Z,33.63
2019-06-10T12:51:32.944Z,33.40
2019-06-10T12:54:06.428Z,33.26
2019-06-10T12:56:43.377Z,33.25
2019-06-10T12:59:16.792Z,33.38
2019-06-10T13:01:49.278Z,33.31
2019-06-10T13:04:22.620Z,33.41
2019-06-10T13:06:57.627Z,33.37
2019-06-10T13:09:34.694Z,33.50
2019-06-10T13:12:13.009Z,33.58
2019-06-10T13:14:44.587Z,33.58
2019-06-10T13:17:16.956Z,33.51
2019-06-10T13:19:52.304Z,34.11
2019-06-10T13:22:26.003Z,33.88
2019-06-10T13:25:02.801Z,33.70
2019-06-10T13:27:35.575Z,33.35
2019-06-10T13:30:08.618Z,33.33
2019-06-10T13:32:43.295Z,33.26
2019-06-10T13:35:17.540Z,33.02
2019-06-10T13:37:52.907Z,32.90
2019-06-10T13:40:33.806Z,32.90
2019-06-10T13:43:08.076Z,32.89
2019-06-10T13:45:42.350Z,32.81
2019-06-10T13:48:15.543Z,32.75
2019-06-10T13:50:48.554Z,33.02
2019-06-10T13:53:20.980Z,32.89
2019-06-10T13:56:14.404Z,32.89
2019-06-10T13:58:33.237Z,33.21
2019-06-10T14:01:13.872Z,33.58
2019-06-10T14:03:43.914Z,33.76
2019-06-10T14:06:33.179Z,33.76
2019-06-10T14:08:54.575Z,33.70
2019-06-10T14:11:26.929Z,33.59
2019-06-10T14:13:57.605Z,33.49
2019-06-10T14:16:33.117Z,33.33
2019-06-10T14:19:07.570Z,33.12
2019-06-10T14:21:44.004Z,32.82
2019-06-10T14:24:16.470Z,32.74
2019-06-10T14:26:48.845Z,32.62
2019-06-10T14:29:21.162Z,32.53
2019-06-10T14:31:57.637Z,32.46
2019-06-10T14:34:34.228Z,32.37
2019-06-10T14:37:12.401Z,32.37
2019-06-10T14:39:45.507Z,32.30
2019-06-10T14:42:17.819Z,32.47
2019-06-10T14:44:52.537Z,32.39
2019-06-10T14:47:24.390Z,32.32
2019-06-10T14:49:59.357Z,32.22
2019-06-10T14:52:33.133Z,32.26
2019-06-10T14:55:09.360Z,32.25
2019-06-10T14:57:42.661Z,32.25
2019-06-10T15:00:18.199Z,32.29
2019-06-10T15:02:54.472Z,32.35
2019-06-10T15:05:26.879Z,32.36
2019-06-10T15:08:00.479Z,32.41
2019-06-10T15:10:33.938Z,32.48
2019-06-10T15:13:07.663Z,32.52
2019-06-10T15:15:43.453Z,32.51
2019-06-10T15:18:18.218Z,32.44
2019-06-10T15:20:53.151Z,32.33
2019-06-10T15:23:24.125Z,32.29
2019-06-10T15:25:57.481Z,32.29
2019-06-10T15:28:30.665Z,32.23
2019-06-10T15:31:03.440Z,32.29
2019-06-10T15:33:36.936Z,32.41
2019-06-10T15:36:15.283Z,32.31
2019-06-10T15:38:52.643Z,32.15
2019-06-10T15:41:32.286Z,32.09
2019-06-10T15:44:07.956Z,31.91
2019-06-10T15:46:43.037Z,31.93
2019-06-10T15:49:21.000Z,31.89
2019-06-10T15:51:52.746Z,31.80
2019-06-10T15:54:25.557Z,31.72
2019-06-10T15:56:58.400Z,31.67
2019-06-10T15:59:30.807Z,31.65
2019-06-10T16:02:04.678Z,31.56
2019-06-10T16:04:37.223Z,31.52
2019-06-10T16:07:14.632Z,31.50
2019-06-10T16:09:45.649Z,31.49
2019-06-10T16:12:24.878Z,31.45
2019-06-10T16:14:56.529Z,31.43
2019-06-10T16:17:30.196Z,31.44
2019-06-10T16:20:08.261Z,31.45
2019-06-10T16:22:45.165Z,31.40
2019-06-10T16:25:20.020Z,31.39
2019-06-10T16:27:54.462Z,31.37
2019-06-10T16:30:26.145Z,31.29
2019-06-10T16:32:59.812Z,31.24
2019-06-10T16:35:32.470Z,31.19
2019-06-10T16:38:13.337Z,31.15
2019-06-10T16:40:45.712Z,31.14
2019-06-10T16:43:19.672Z,31.09
2019-06-10T16:45:52.471Z,31.00
2019-06-10T16:48:25.545Z,30.95
2019-06-10T16:51:07.735Z,30.96
2019-06-10T16:53:42.478Z,30.91
2019-06-10T16:56:14.158Z,30.88
2019-06-10T16:58:46.491Z,30.86
2019-06-10T17:01:20.308Z,30.78
2019-06-10T17:03:55.217Z,30.76
2019-06-10T17:06:27.955Z,30.68
2019-06-10T17:09:02.849Z,30.68
2019-06-10T17:11:36.791Z,30.87
2019-06-10T17:14:09.204Z,30.69
2019-06-10T17:16:41.721Z,30.59
2019-06-10T17:19:14.425Z,30.52
2019-06-10T17:21:46.992Z,30.45
2019-06-10T17:24:21.678Z,30.44
2019-06-10T17:26:55.439Z,30.43
2019-06-10T17:29:30.273Z,30.38
2019-06-10T17:32:13.130Z,30.38
2019-06-10T17:34:45.712Z,30.31
2019-06-10T17:37:22.368Z,30.31
2019-06-10T17:39:54.027Z,30.23
2019-06-10T17:42:38.215Z,30.20
2019-06-10T17:45:15.183Z,30.17
2019-06-10T17:47:53.426Z,30.08
2019-06-10T17:50:46.417Z,30.24
2019-06-10T17:53:36.079Z,30.39
2019-06-10T17:56:15.045Z,31.40
2019-06-10T17:58:58.304Z,31.34
2019-06-10T18:01:34.233Z,30.62
2019-06-10T18:04:27.337Z,30.18
2019-06-10T18:07:13.023Z,29.95
2019-06-10T18:09:52.986Z,29.78
2019-06-10T18:12:52.701Z,29.62
2019-06-10T18:15:35.363Z,29.63
2019-06-10T18:18:09.708Z,29.56
2019-06-10T18:20:43.457Z,29.50
2019-06-10T18:23:15.927Z,29.44
2019-06-10T18:25:49.310Z,29.37
2019-06-10T18:28:22.584Z,29.25
2019-06-10T18:30:55.235Z,29.15
2019-06-10T18:33:27.726Z,29.07
2019-06-10T18:35:59.958Z,29.04
2019-06-10T18:38:35.134Z,28.98
2019-06-10T18:41:06.315Z,28.87
2019-06-10T18:43:40.027Z,28.91
2019-06-10T18:46:12.855Z,28.81
2019-06-10T18:48:45.279Z,28.77
2019-06-10T18:51:22.584Z,28.68
2019-06-10T18:53:54.732Z,28.65
2019-06-10T18:56:27.659Z,28.52
2019-06-10T18:59:15.659Z,28.45
2019-06-10T19:01:34.944Z,28.42
2019-06-10T19:04:07.280Z,28.35
2019-06-10T19:06:39.870Z,28.29
2019-06-10T19:09:12.955Z,28.20
2019-06-10T19:11:45.410Z,28.18
2019-06-10T19:14:17.581Z,28.13
2019-06-10T19:16:52.277Z,28.09
2019-06-10T19:19:26.354Z,28.01
2019-06-10T19:22:05.524Z,27.98
2019-06-10T19:24:35.847Z,27.92
2019-06-10T19:27:06.697Z,27.88
2019-06-10T19:29:45.494Z,27.82
2019-06-10T19:32:15.001Z,27.78
2019-06-10T19:34:48.725Z,27.71
2019-06-10T19:37:22.161Z,27.70
2019-06-10T19:39:58.791Z,27.62
2019-06-10T19:42:32.956Z,27.58
2019-06-10T19:45:08.844Z,27.59
2019-06-10T19:47:45.449Z,27.58
2019-06-10T19:50:16.960Z,27.53
2019-06-10T19:52:49.252Z,27.49
2019-06-10T19:55:23.366Z,27.44
2019-06-10T19:57:55.819Z,27.39
2019-06-10T20:00:28.172Z,27.35
2019-06-10T20:03:02.729Z,27.29
2019-06-10T20:05:36.109Z,27.21
2019-06-10T20:08:08.466Z,27.15
2019-06-10T20:10:40.764Z,27.07
2019-06-10T20:13:13.082Z,27.05
2019-06-10T20:15:47.959Z,27.05
2019-06-10T20:18:22.757Z,26.99
2019-06-10T20:20:55.195Z,26.95
2019-06-10T20:23:29.515Z,26.97
2019-06-10T20:26:02.705Z,26.95
2019-06-10T20:28:35.012Z,26.88
2019-06-10T20:31:07.355Z,26.88
2019-06-10T20:33:43.082Z,26.86
2019-06-10T20:36:21.822Z,26.80
2019-06-10T20:38:53.367Z,26.80
2019-06-10T20:41:24.792Z,26.83
2019-06-10T20:43:57.118Z,26.72
2019-06-10T20:46:29.368Z,26.49
2019-06-10T20:49:03.322Z,26.36
2019-06-10T20:51:52.011Z,26.33
2019-06-10T20:54:12.804Z,26.18
2019-06-10T20:56:48.353Z,26.10
2019-06-10T20:59:21.850Z,26.17
2019-06-10T21:01:53.693Z,26.24
2019-06-10T21:04:26.170Z,26.16
2019-06-10T21:07:02.528Z,26.18
2019-06-10T21:09:36.384Z,26.12
2019-06-10T21:12:08.671Z,26.03
2019-06-10T21:14:42.735Z,26.01
2019-06-10T21:17:15.995Z,26.01
2019-06-10T21:19:49.205Z,25.96
2019-06-10T21:22:21.586Z,25.97
2019-06-10T21:24:55.890Z,25.86
2019-06-10T21:27:28.216Z,25.85
2019-06-10T21:30:04.364Z,25.76
2019-06-10T21:32:34.647Z,25.81
2019-06-10T21:35:07.767Z,25.77
2019-06-10T21:37:42.546Z,25.64
2019-06-10T21:40:14.419Z,25.61
2019-06-10T21:42:47.880Z,25.63
2019-06-10T21:45:22.738Z,25.62
2019-06-10T21:47:54.595Z,25.54
2019-06-10T21:50:27.003Z,25.50
2019-06-10T21:53:03.084Z,25.47
2019-06-10T21:55:35.268Z,25.39
2019-06-10T21:58:09.551Z,25.39
2019-06-10T22:00:55.596Z,25.35
2019-06-10T22:03:23.188Z,25.32
2019-06-10T22:05:54.760Z,25.32
2019-06-10T22:08:28.026Z,25.29
2019-06-10T22:11:02.469Z,25.25
2019-06-10T22:13:34.293Z,25.15
2019-06-10T22:16:06.557Z,25.12
2019-06-10T22:18:38.852Z,25.00
2019-06-10T22:21:14.644Z,25.05
2019-06-10T22:23:47.169Z,24.95
2019-06-10T22:26:19.383Z,24.86
2019-06-10T22:28:55.809Z,24.87
2019-06-10T22:31:27.643Z,24.88
2019-06-10T22:34:00.015Z,24.72
2019-06-10T22:36:32.712Z,24.65
2019-06-10T22:39:05.559Z,24.71
2019-06-10T22:41:39.368Z,24.73
2019-06-10T22:44:12.695Z,24.74
2019-06-10T22:46:45.091Z,24.67
2019-06-10T22:49:17.420Z,24.63
2019-06-10T22:51:50.233Z,24.57
2019-06-10T22:54:22.729Z,24.51
2019-06-10T22:56:57.798Z,24.58
2019-06-10T22:59:29.094Z,24.50
2019-06-10T23:02:03.027Z,24.38
2019-06-10T23:04:35.500Z,24.41
2019-06-10T23:07:07.853Z,24.26
2019-06-10T23:09:42.900Z,24.41
2019-06-10T23:12:16.906Z,24.33
2019-06-10T23:14:52.864Z,24.25
2019-06-10T23:17:25.710Z,24.27
2019-06-10T23:19:58.480Z,24.20
2019-06-10T23:22:31.971Z,24.19
2019-06-10T23:25:06.592Z,24.11
2019-06-10T23:27:40.972Z,23.95
2019-06-10T23:30:12.110Z,24.06
2019-06-10T23:32:45.471Z,24.11
2019-06-10T23:35:17.754Z,23.94
2019-06-10T23:37:50.525Z,24.01
2019-06-10T23:40:24.044Z,23.97
2019-06-10T23:42:57.041Z,23.94
2019-06-10T23:45:29.353Z,23.90
2019-06-10T23:48:04.882Z,23.80
2019-06-10T23:50:36.259Z,23.82
2019-06-10T23:53:08.504Z,23.74
2019-06-10T23:55:42.841Z,23.72
2019-06-10T23:58:14.744Z,23.75
